EGMCLFCR

Guest
Details From EGMC - Southend
To LFCR - Rodez Marcillac
Flight Number -
Tags Generated
Created
Modified
Stats Distance 436 nm / 807 km
Max Altitude 0 ft / 0 m
Waypoints 4
Social Downloads 3
Likes 0
Share VATSIM

Download

Looking for another format? Having issues loading an existing format? Contact us
Advertisement - Login to hide

Notes

Generated

Route

EGMC GILUX RW13 LFCR

ID Type Via Altitude Latitude Longitude Leg Dist Tot Dist Heading (true) Name
O EGMC APT - 0 ft / 0 m 51.56725˚ 0.68627˚ - 0 nm - -
GILUX FIX - 0 ft / 0 m 47.72417˚ 1.74306˚ 234 nm 234 nm 169° / 170° -
RW13 FIX - 0 ft / 0 m 44.41367˚ 2.47264˚ 201 nm 435 nm 171° / 172° -
O LFCR APT - 0 ft / 0 m 44.41368˚ 2.47266˚ 0 nm 435 nm 52° / 52° -

Altitude Profile

Advertisement - Login to hide

Weather


0- 5 10 15 20 25 30 35+ Temperature / ° C

Clouds and Precipitation
Forecast for 2017-12-17 18:00 UTC. Updated an hour ago

Ground ~20,000 ft ~40,000 ft Winds

EGMC

Details ICAO EGMC (SEN)
Name Southend
Region United Kingdom
Timezone Europe/London (UTC+0.0)
Stats Elevation 49 ft / 15 m (AMSL)
Location 51.571443° 0.695583°
Runways 1
Magnetic Variation 0.170° W

METAR

EGMC 171620Z 21014KT 5000 RA SCT009 OVC012 05/03 Q1020

Decode

TAF

Not found

Departure Runways

ID Width Length Bearing (true) Bearing (mag) Surface Threshold Offset Overrun Length
06 121 ft / 37 m 5,230 ft / 1,594 m 54.10° 54.27° Asphalt 558 ft / 170 m 0 ft / 0 m
24 121 ft / 37 m 5,230 ft / 1,594 m 234.11° 234.28° Asphalt 466 ft / 142 m 0 ft / 0 m

LFCR

Details ICAO LFCR (RDZ)
Name Rodez Marcillac
Region France
Timezone Europe/Paris (UTC+1.0)
Stats Elevation 1,910 ft / 582 m (AMSL)
Location 44.407888° 2.482646°
Runways 1
Magnetic Variation 0.846° E

METAR

LFCR 171630Z AUTO 31012KT 1700 0800 R31/1300D BCFG VV/// 01/01 Q1028 TEMPO 0400 FG

Decode

TAF

TAF AMD LFCR 171438Z 1714/1812 30010KT 8000 BKN008 TEMPO 1714/1723 3000 BR OVC003 PROB40 TEMPO 1714/1723 0400 FG VV/// BECMG 1721/1723 29005KT BECMG 1723/1801 4000 BR OVC004 PROB30 TEMPO 1800/1804 2000 -RASN OVC002 TEMPO 1804/1812 2000 -RA OVC002 PROB30 TEMPO 1804/1810 0600 FG VV/// BECMG 1808/1810 27010KT

Decode

Destination Runways

ID Width Length Bearing (true) Bearing (mag) Surface Threshold Offset Overrun Length
13 148 ft / 45 m 6,709 ft / 2,045 m 129.07° 128.22° Asphalt 0 ft / 0 m 656 ft / 200 m
31 148 ft / 45 m 6,709 ft / 2,045 m 309.08° 308.23° Asphalt 164 ft / 50 m 0 ft / 0 m

Approach Navaids

Runway Type Ident Frequency Range Bearing (true) Bearing (mag) Slope Elevation
13 Localiser RDE 110.75 MHz 18 nm / 33 km 129.25° 128.40° - 1,906 ft / 581 m (AMSL)
13 Glidescope RDE 110.75 MHz 10 nm / 19 km 129.07° 128.23° 3.00° 1,906 ft / 581 m (AMSL)
31 Localiser RDE 110.75 MHz 18 nm / 33 km 309.01° 308.16° - 1,914 ft / 583 m (AMSL)
31 Glidescope RDE 110.75 MHz 10 nm / 19 km 309.07° 308.23° 3.00° 1,914 ft / 583 m (AMSL)
31 DME RDE 110.75 MHz 18 nm / 33 km - - - 1,939 ft / 591 m (AMSL)